Time;durP1;ratioP1;P1;durP2;ratioP2;P2;SDS_P1;SDS_P2;PMS_P1;PMS_P2;Temp;Humidity;BMP_temperature;BMP_pressure;BME280_temperature;BME280_humidity;BME280_pressure;Samples;Min_cycle;Max_cycle;Signal;HPM_P1;HPM_P2
2023/01/01 00:00:47;;;;;;;;;;;;;;;25.97;41.70;94753.50;5115447;28;7029;-62
2023/01/01 00:03:18;;;;;;;;;;;;;;;25.98;41.40;94754.25;5095205;28;7265;-62
2023/01/01 00:05:46;;;;;;;;;;;;;;;25.97;41.92;94767.28;5098585;28;7847;-61
2023/01/01 00:08:20;;;;;;;;;;;;;;;25.98;42.29;94779.06;5108637;28;8718;-61
2023/01/01 00:10:46;;;;;;;;;;;;;;;25.97;41.36;94781.06;5100046;28;8997;-61
2023/01/01 00:13:27;;;;;;;;;;;;;;;25.98;41.75;94779.06;5100187;28;7191;-61
2023/01/01 00:15:54;;;;;;;;;;;;;;;25.97;41.73;94785.81;5102461;28;8674;-62
2023/01/01 00:18:23;;;;;;;;;;;;;;;25.98;41.32;94779.06;5100239;28;7473;-61
2023/01/01 00:20:50;;;;;;;;;;;;;;;25.97;41.87;94778.31;5108599;28;7572;-61
2023/01/01 00:23:26;;;;;;;;;;;;;;;25.97;41.40;94781.06;5110911;28;7216;-62
2023/01/01 00:26:26;;;;;;;;;;;;;;;25.98;42.13;94782.59;5108469;28;7040;-62
2023/01/01 00:29:03;;;;;;;;;;;;;;;25.99;41.53;94780.59;5016601;28;7360;-62
2023/01/01 00:31:31;;;;;;;;;;;;;;;25.97;41.50;94775.56;5013874;28;7855;-62
2023/01/01 00:33:58;;;;;;;;;;;;;;;25.99;41.70;94772.31;5016269;28;7049;-61
2023/01/01 00:36:30;;;;;;;;;;;;;;;25.98;41.70;94771.56;5013589;28;7244;-62
2023/01/01 00:38:57;;;;;;;;;;;;;;;25.99;41.63;94777.81;5012876;28;9248;-62
2023/01/01 00:41:32;;;;;;;;;;;;;;;25.99;41.89;94777.81;4999382;28;7049;-62
2023/01/01 00:43:58;;;;;;;;;;;;;;;25.97;41.76;94781.06;5032390;28;7155;-62
2023/01/01 00:46:24;;;;;;;;;;;;;;;25.95;41.61;94786.34;5015841;28;10825;-61
2023/01/01 00:48:50;;;;;;;;;;;;;;;25.98;41.58;94777.06;5029440;28;7121;-62
2023/01/01 00:51:16;;;;;;;;;;;;;;;25.96;41.23;94776.81;5017028;28;7243;-62
2023/01/01 00:53:58;;;;;;;;;;;;;;;25.97;41.90;94780.31;5016025;28;7016;-62
2023/01/01 00:56:27;;;;;;;;;;;;;;;25.96;41.95;94779.59;5032748;28;7224;-61
2023/01/01 00:58:54;;;;;;;;;;;;;;;25.96;41.40;94773.31;5007997;28;7023;-62
2023/01/01 01:01:53;;;;;;;;;;;;;;;25.93;41.65;94775.06;5007724;28;7220;-62
2023/01/01 01:04:28;;;;;;;;;;;;;;;25.95;41.64;94774.56;4987362;28;7221;-62
2023/01/01 01:07:21;;;;;;;;;;;;;;;25.92;41.33;94770.81;5081289;28;7378;-61
2023/01/01 01:09:48;;;;;;;;;;;;;;;25.94;41.79;94767.56;5066098;28;7252;-61
2023/01/01 01:12:23;;;;;;;;;;;;;;;25.96;42.00;94776.06;5067144;28;9388;-61
2023/01/01 01:14:49;;;;;;;;;;;;;;;25.94;41.88;94776.56;5079511;28;9335;-61
2023/01/01 01:17:17;;;;;;;;;;;;;;;25.97;41.47;94780.31;5064873;28;7006;-61
2023/01/01 01:19:52;;;;;;;;;;;;;;;25.97;41.51;94780.31;5066017;28;7524;-61
2023/01/01 01:22:18;;;;;;;;;;;;;;;25.95;41.69;94775.31;5066997;28;9302;-63
2023/01/01 01:25:16;;;;;;;;;;;;;;;25.95;41.77;94777.31;5052021;28;7616;-61
2023/01/01 01:27:49;;;;;;;;;;;;;;;25.95;41.46;94777.31;4989438;28;7306;-62
2023/01/01 01:30:19;;;;;;;;;;;;;;;25.93;41.53;94760.53;5008742;28;7406;-62
2023/01/01 01:32:52;;;;;;;;;;;;;;;25.93;41.23;94758.53;5002905;28;7267;-61
2023/01/01 01:35:28;;;;;;;;;;;;;;;25.95;41.63;94767.03;5001647;28;7607;-62
2023/01/01 01:37:55;;;;;;;;;;;;;;;25.96;41.36;94754.03;4995305;28;7031;-62
2023/01/01 01:40:54;;;;;;;;;;;;;;;25.93;41.66;94763.28;5007954;28;8345;-62
2023/01/01 01:43:51;;;;;;;;;;;;;;;25.91;41.51;94755.53;5002886;28;7364;-62
2023/01/01 01:46:24;;;;;;;;;;;;;;;25.89;41.61;94751.78;5011480;28;7104;-62
2023/01/01 01:48:51;;;;;;;;;;;;;;;25.90;41.24;94754.00;4991333;28;9190;-63
2023/01/01 01:51:26;;;;;;;;;;;;;;;25.90;41.80;94754.00;4993822;28;7488;-62
2023/01/01 01:53:59;;;;;;;;;;;;;;;25.90;41.70;94762.28;4991344;28;7264;-62
2023/01/01 01:56:39;;;;;;;;;;;;;;;25.88;41.12;94759.28;4994244;28;7025;-61
2023/01/01 01:59:08;;;;;;;;;;;;;;;25.88;41.65;94753.78;4989752;28;9312;-62
2023/01/01 02:01:34;;;;;;;;;;;;;;;25.89;41.40;94751.78;4988694;28;9060;-61
2023/01/01 02:04:02;;;;;;;;;;;;;;;25.88;42.12;94756.53;5058301;28;7437;-62
2023/01/01 02:06:39;;;;;;;;;;;;;;;25.88;41.47;94762.03;5083303;28;9638;-62
2023/01/01 02:09:07;;;;;;;;;;;;;;;25.92;41.92;94770.06;5066347;28;7275;-62
2023/01/01 02:11:36;;;;;;;;;;;;;;;25.90;42.01;94770.53;5053356;28;9037;-62
2023/01/01 02:14:08;;;;;;;;;;;;;;;25.90;41.42;94759.53;5068153;28;7260;-62
2023/01/01 02:16:36;;;;;;;;;;;;;;;25.90;41.22;94776.06;5062954;28;9444;-62
2023/01/01 02:19:45;;;;;;;;;;;;;;;25.91;41.04;94776.81;5089024;28;7099;-62
2023/01/01 02:22:23;;;;;;;;;;;;;;;25.88;42.01;94772.34;5096310;28;7037;-63
2023/01/01 02:25:37;;;;;;;;;;;;;;;25.86;42.04;94764.53;5089331;28;7393;-62
2023/01/01 02:28:36;;;;;;;;;;;;;;;25.86;42.03;94772.09;5000485;28;9428;-61
2023/01/01 02:31:33;;;;;;;;;;;;;;;25.85;41.42;94768.56;4995453;28;7118;-62
2023/01/01 02:34:22;;;;;;;;;;;;;;;25.85;41.66;94771.31;5005471;28;9125;-62
2023/01/01 02:37:14;;;;;;;;;;;;;;;25.86;41.25;94774.84;4979347;28;6982;-60
2023/01/01 02:39:58;;;;;;;;;;;;;;;25.86;41.66;94764.53;4979019;28;7270;-63
2023/01/01 02:42:28;;;;;;;;;;;;;;;25.87;41.23;94766.06;4988960;28;7223;-62
2023/01/01 02:45:06;;;;;;;;;;;;;;;25.88;41.73;94755.78;4984025;28;7252;-63
2023/01/01 02:47:33;;;;;;;;;;;;;;;25.87;41.66;94757.78;5001951;28;9061;-62
2023/01/01 02:50:11;;;;;;;;;;;;;;;25.88;41.38;94772.34;5001498;28;9754;-62
2023/01/01 02:52:48;;;;;;;;;;;;;;;25.89;41.38;94757.28;4991868;28;7288;-61
2023/01/01 02:55:45;;;;;;;;;;;;;;;25.90;41.27;94762.28;4991233;28;7214;-62
2023/01/01 03:01:54;;;;;;;;;;;;;;;25.87;41.17;94774.31;5001081;28;7288;-61
2023/01/01 03:04:56;;;;;;;;;;;;;;;25.86;41.87;94800.38;4981528;28;7489;-62
2023/01/01 03:07:47;;;;;;;;;;;;;;;25.87;41.32;94799.13;5009700;28;7272;-61
2023/01/01 03:10:37;;;;;;;;;;;;;;;25.85;41.91;94812.66;4992918;28;7593;-63
2023/01/01 03:13:40;;;;;;;;;;;;;;;25.84;41.50;94813.16;4994846;28;7266;-62
2023/01/01 03:16:25;;;;;;;;;;;;;;;25.83;41.36;94819.94;4989516;28;9899;-61
2023/01/01 03:19:28;;;;;;;;;;;;;;;25.86;42.08;94818.94;4982775;28;7871;-61
2023/01/01 03:22:27;;;;;;;;;;;;;;;25.86;41.61;94814.16;4979082;28;9623;-62
2023/01/01 03:25:02;;;;;;;;;;;;;;;25.84;41.58;94818.66;5000354;28;7247;-61
2023/01/01 03:27:53;;;;;;;;;;;;;;;25.83;41.79;94815.16;4988446;28;7021;-62
2023/01/01 03:30:23;;;;;;;;;;;;;;;25.84;41.83;94813.16;4921814;29;7194;-63
2023/01/01 03:33:37;;;;;;;;;;;;;;;25.85;41.98;94826.44;4929482;29;7055;-63
2023/01/01 03:36:42;;;;;;;;;;;;;;;25.83;41.60;94828.94;4926644;29;7271;-62
2023/01/01 03:39:37;;;;;;;;;;;;;;;25.85;42.04;94828.44;4843662;29;7525;-63
2023/01/01 03:42:20;;;;;;;;;;;;;;;25.83;41.74;94831.69;4873029;29;9625;-62
2023/01/01 03:45:15;;;;;;;;;;;;;;;25.82;41.68;94832.19;4866853;29;7239;-62
2023/01/01 03:47:53;;;;;;;;;;;;;;;25.81;41.91;94828.69;4859312;29;7937;-63
2023/01/01 03:50:27;;;;;;;;;;;;;;;25.82;41.91;94838.47;4870298;29;7199;-63
2023/01/01 03:52:56;;;;;;;;;;;;;;;25.81;42.27;94833.44;4865398;29;7432;-63
2023/01/01 03:55:50;;;;;;;;;;;;;;;25.82;41.76;94834.94;4875761;29;9670;-63
2023/01/01 03:58:38;;;;;;;;;;;;;;;25.79;42.23;94836.72;4863991;29;7208;-63
2023/01/01 04:01:21;;;;;;;;;;;;;;;25.83;42.23;94841.97;4902538;29;9727;-60
2023/01/01 04:04:05;;;;;;;;;;;;;;;25.80;41.57;94834.69;4923711;29;7029;-62
2023/01/01 04:06:33;;;;;;;;;;;;;;;25.80;41.91;94838.22;4941646;28;6998;-61
2023/01/01 04:09:03;;;;;;;;;;;;;;;25.80;41.69;94837.44;5013129;28;8909;-62
2023/01/01 04:14:56;;;;;;;;;;;;;;;25.81;42.18;94834.22;5052784;28;7476;-61
2023/01/01 04:17:24;;;;;;;;;;;;;;;25.82;42.13;94835.69;5033862;28;9362;-63
2023/01/01 04:20:04;;;;;;;;;;;;;;;25.82;41.88;94849.47;5025075;28;7170;-62
2023/01/01 04:22:44;;;;;;;;;;;;;;;25.81;41.86;94847.22;5037027;28;7862;-62
2023/01/01 04:25:13;;;;;;;;;;;;;;;25.81;42.01;94838.97;5038039;28;7991;-63
2023/01/01 04:28:02;;;;;;;;;;;;;;;25.81;42.18;94847.22;5036895;28;9041;-63
2023/01/01 04:31:01;;;;;;;;;;;;;;;25.81;41.50;94839.72;5031107;28;9280;-62
2023/01/01 04:33:43;;;;;;;;;;;;;;;25.81;42.41;94845.22;4926428;28;7094;-63
2023/01/01 04:36:24;;;;;;;;;;;;;;;25.82;42.23;94840.44;4929584;29;7417;-62
2023/01/01 04:39:18;;;;;;;;;;;;;;;25.83;42.21;94839.97;4937230;28;7034;-62
2023/01/01 04:41:46;;;;;;;;;;;;;;;25.82;41.81;94835.69;4934929;28;7559;-62
2023/01/01 04:44:20;;;;;;;;;;;;;;;25.79;41.85;94822.94;4933378;28;7006;-62
2023/01/01 04:46:50;;;;;;;;;;;;;;;25.81;41.76;94831.47;4951368;28;7310;-63
2023/01/01 04:49:21;;;;;;;;;;;;;;;25.81;41.66;94828.69;4930169;29;9410;-62
2023/01/01 04:51:47;;;;;;;;;;;;;;;25.82;42.23;94807.38;4986963;28;7518;-62
2023/01/01 04:54:18;;;;;;;;;;;;;;;25.81;41.90;94823.19;5016661;28;7208;-62
2023/01/01 04:56:45;;;;;;;;;;;;;;;25.80;41.80;94826.44;5017157;28;7516;-63
2023/01/01 04:59:20;;;;;;;;;;;;;;;25.79;42.24;94809.16;5012980;28;8878;-62
2023/01/01 05:01:46;;;;;;;;;;;;;;;25.81;41.79;94820.44;5010544;28;6987;-62
2023/01/01 05:04:14;;;;;;;;;;;;;;;25.82;42.24;94837.69;5007679;28;8255;-62
2023/01/01 05:06:40;;;;;;;;;;;;;;;25.83;41.89;94834.47;5016112;28;7280;-63
2023/01/01 05:09:19;;;;;;;;;;;;;;;25.84;41.97;94844.22;5025785;28;9052;-63
2023/01/01 05:11:59;;;;;;;;;;;;;;;25.84;41.49;94840.69;5095147;28;8998;-63
2023/01/01 05:14:36;;;;;;;;;;;;;;;25.83;42.17;94848.25;5104734;28;9547;-63
2023/01/01 05:17:08;;;;;;;;;;;;;;;25.83;41.69;94841.97;5104514;28;9382;-63
2023/01/01 05:19:37;;;;;;;;;;;;;;;25.85;42.07;94840.22;5098233;28;7272;-62
2023/01/01 05:22:09;;;;;;;;;;;;;;;25.84;41.43;94840.69;5097991;28;9282;-61
2023/01/01 05:24:44;;;;;;;;;;;;;;;25.84;42.24;94846.22;5104854;28;7172;-60
2023/01/01 05:27:20;;;;;;;;;;;;;;;25.84;42.07;94848.97;5101290;28;7038;-63
2023/01/01 05:29:55;;;;;;;;;;;;;;;25.80;41.78;94843.72;5099803;28;8573;-62
2023/01/01 05:32:29;;;;;;;;;;;;;;;25.81;41.77;94836.97;5105603;28;7301;-62
2023/01/01 05:34:55;;;;;;;;;;;;;;;25.83;42.05;94828.19;5102387;28;7343;-63
2023/01/01 05:37:25;;;;;;;;;;;;;;;25.85;42.03;94834.72;5111784;27;7324;-63
2023/01/01 05:39:55;;;;;;;;;;;;;;;25.82;42.00;94843.22;5111173;27;7612;-62
2023/01/01 05:42:35;;;;;;;;;;;;;;;25.79;41.77;94836.72;5097804;28;9114;-63
2023/01/01 05:45:03;;;;;;;;;;;;;;;25.79;42.17;94836.72;5110852;28;8076;-63
2023/01/01 05:47:29;;;;;;;;;;;;;;;25.80;42.21;94838.22;5110338;27;7045;-62
2023/01/01 05:49:55;;;;;;;;;;;;;;;25.82;41.42;94832.94;5098844;28;8979;-63
2023/01/01 05:52:21;;;;;;;;;;;;;;;25.81;41.88;94841.72;5097060;28;7559;-61
2023/01/01 05:54:47;;;;;;;;;;;;;;;25.80;42.14;94843.72;5102903;28;7364;-60
2023/01/01 05:57:15;;;;;;;;;;;;;;;25.81;41.46;94850.75;5093701;28;9125;-62
2023/01/01 05:59:43;;;;;;;;;;;;;;;25.82;41.93;94852.22;5108840;28;9730;-62
2023/01/01 06:02:15;;;;;;;;;;;;;;;25.81;41.81;94845.22;5103068;28;7290;-63
2023/01/01 06:04:45;;;;;;;;;;;;;;;25.82;41.45;94841.22;5096803;28;7320;-61
2023/01/01 06:07:12;;;;;;;;;;;;;;;25.84;41.43;94843.47;5101050;28;7161;-62
2023/01/01 06:09:38;;;;;;;;;;;;;;;25.83;41.84;94848.25;5109553;28;7105;-63
2023/01/01 06:12:22;;;;;;;;;;;;;;;25.82;42.17;94851.47;5108135;28;7013;-62
2023/01/01 06:14:48;;;;;;;;;;;;;;;25.83;41.92;94851.00;5107240;28;7226;-62
2023/01/01 06:17:14;;;;;;;;;;;;;;;25.82;41.91;94851.47;5092383;28;7297;-63
2023/01/01 06:19:44;;;;;;;;;;;;;;;25.81;42.27;94850.00;5112733;28;8972;-63
2023/01/01 06:22:30;;;;;;;;;;;;;;;25.81;42.27;94842.47;5101488;28;8520;-61
2023/01/01 06:24:56;;;;;;;;;;;;;;;25.83;41.80;94845.47;5104059;28;9072;-62
2023/01/01 06:27:30;;;;;;;;;;;;;;;25.81;41.81;94852.75;5103571;28;9360;-63
2023/01/01 06:30:07;;;;;;;;;;;;;;;25.78;41.58;94862.75;5089096;28;7031;-62
2023/01/01 06:32:43;;;;;;;;;;;;;;;25.78;42.04;94862.75;5097761;28;7047;-62
2023/01/01 06:35:16;;;;;;;;;;;;;;;25.79;41.84;94852.50;5097289;28;9135;-63
2023/01/01 06:37:51;;;;;;;;;;;;;;;25.80;41.79;94848.47;5105338;28;7787;-63
2023/01/01 06:40:29;;;;;;;;;;;;;;;25.78;42.01;94848.97;5101442;27;9106;-62
2023/01/01 06:43:03;;;;;;;;;;;;;;;25.80;42.06;94860.25;5093639;28;9062;-63
2023/01/01 06:45:29;;;;;;;;;;;;;;;25.79;42.24;94863.53;5109262;28;7344;-61
2023/01/01 06:48:05;;;;;;;;;;;;;;;25.80;42.06;94857.50;5115732;27;7119;-62
2023/01/01 06:50:30;;;;;;;;;;;;;;;25.81;41.89;94859.00;5100427;28;7449;-61
2023/01/01 06:52:56;;;;;;;;;;;;;;;25.77;42.31;94852.25;5097108;28;9320;-63
2023/01/01 06:55:22;;;;;;;;;;;;;;;25.77;41.71;94858.50;5099657;28;7227;-63
2023/01/01 06:57:51;;;;;;;;;;;;;;;25.78;41.96;94862.75;5095570;28;9339;-63
2023/01/01 07:01:05;;;;;;;;;;;;;;;25.82;41.83;94854.22;5101112;28;8754;-63
2023/01/01 07:03:51;;;;;;;;;;;;;;;25.81;41.36;94866.53;5070384;28;7279;-62
2023/01/01 07:06:29;;;;;;;;;;;;;;;25.80;41.70;94860.25;5048272;28;7052;-63
2023/01/01 07:09:08;;;;;;;;;;;;;;;25.80;41.77;94867.75;5067201;28;9323;-63
2023/01/01 07:11:42;;;;;;;;;;;;;;;25.79;41.78;94864.28;5048672;28;7217;-64
2023/01/01 07:14:08;;;;;;;;;;;;;;;25.78;42.08;94876.53;5066027;28;7358;-62
2023/01/01 07:16:34;;;;;;;;;;;;;;;25.78;42.52;94871.03;5064418;28;7696;-63
2023/01/01 07:19:31;;;;;;;;;;;;;;;25.83;41.69;94864.00;5069821;28;7521;-62
2023/01/01 07:22:11;;;;;;;;;;;;;;;25.87;41.97;94865.28;5017643;28;10174;-63
2023/01/01 07:24:47;;;;;;;;;;;;;;;25.87;42.06;94873.53;5000410;28;7075;-62
2023/01/01 07:27:40;;;;;;;;;;;;;;;25.82;42.29;94868.78;5010067;28;9401;-62
2023/01/01 07:30:09;;;;;;;;;;;;;;;25.79;41.98;94878.06;5019139;28;7674;-62
2023/01/01 07:32:55;;;;;;;;;;;;;;;25.77;41.64;94877.81;5029490;28;7064;-63
2023/01/01 07:35:24;;;;;;;;;;;;;;;25.77;42.07;94879.81;5059126;28;9018;-63
2023/01/01 07:38:00;;;;;;;;;;;;;;;25.77;41.53;94877.81;5063396;28;7254;-62
2023/01/01 07:40:44;;;;;;;;;;;;;;;25.80;42.03;94882.28;5076606;28;7432;-63
2023/01/01 07:43:12;;;;;;;;;;;;;;;25.78;42.26;94884.03;5078532;28;7039;-61
2023/01/01 07:45:39;;;;;;;;;;;;;;;25.77;41.85;94888.81;5073038;28;7046;-63
2023/01/01 07:48:08;;;;;;;;;;;;;;;25.75;42.03;94890.56;5070227;28;9145;-64
2023/01/01 07:50:37;;;;;;;;;;;;;;;25.74;42.50;94895.31;5060836;28;7385;-64
2023/01/01 07:53:06;;;;;;;;;;;;;;;25.75;42.35;94885.78;5065720;28;7477;-63
2023/01/01 07:55:33;;;;;;;;;;;;;;;25.75;42.35;94902.31;5054918;28;7124;-63
2023/01/01 07:57:59;;;;;;;;;;;;;;;25.76;42.21;94900.31;5070280;28;7188;-63
2023/01/01 08:00:35;;;;;;;;;;;;;;;25.76;41.93;94906.59;5095387;28;7278;-63
2023/01/01 08:03:17;;;;;;;;;;;;;;;25.77;42.60;94910.09;5101728;28;8969;-60
2023/01/01 08:05:44;;;;;;;;;;;;;;;25.76;42.77;94914.09;5097884;28;7031;-62
2023/01/01 08:08:12;;;;;;;;;;;;;;;25.74;42.77;94917.38;5103163;28;7266;-61
2023/01/01 08:10:38;;;;;;;;;;;;;;;25.76;42.18;94898.31;5101464;28;10049;-61
2023/01/01 08:13:38;;;;;;;;;;;;;;;25.76;42.67;94898.31;5111087;28;7017;-62
2023/01/01 08:16:37;;;;;;;;;;;;;;;25.77;42.08;94894.34;5097551;28;7194;-62
2023/01/01 08:19:22;;;;;;;;;;;;;;;25.79;41.78;94905.59;5101030;28;9043;-62
2023/01/01 08:21:58;;;;;;;;;;;;;;;25.77;42.35;94897.09;5097602;28;7344;-63
2023/01/01 08:24:44;;;;;;;;;;;;;;;25.79;42.59;94902.09;5095111;28;9030;-62
2023/01/01 08:27:34;;;;;;;;;;;;;;;25.78;42.65;94904.09;5099878;28;7830;-62
2023/01/01 08:30:47;;;;;;;;;;;;;;;25.79;42.76;94913.13;5100482;28;7476;-62
2023/01/01 08:33:21;;;;;;;;;;;;;;;25.78;42.20;94901.34;5040753;28;7640;-63
2023/01/01 08:35:48;;;;;;;;;;;;;;;25.77;42.20;94899.84;5057864;28;7850;-62
2023/01/01 08:38:26;;;;;;;;;;;;;;;25.76;42.05;94886.56;5036758;28;9245;-63
2023/01/01 08:41:09;;;;;;;;;;;;;;;25.78;42.03;94906.84;5046809;28;7274;-63
2023/01/01 08:43:36;;;;;;;;;;;;;;;25.78;42.17;94890.31;5051209;28;7203;-63
2023/01/01 08:46:21;;;;;;;;;;;;;;;25.82;41.96;94904.59;5051548;28;7050;-62
2023/01/01 08:49:03;;;;;;;;;;;;;;;25.81;42.11;94897.59;5066231;28;8608;-62
2023/01/01 08:51:29;;;;;;;;;;;;;;;25.80;42.38;94901.59;5048331;28;9093;-63
2023/01/01 08:53:55;;;;;;;;;;;;;;;25.80;41.71;94912.59;5045123;28;8085;-63
2023/01/01 08:56:21;;;;;;;;;;;;;;;25.79;42.76;94905.59;5064142;28;7276;-64
2023/01/01 08:59:31;;;;;;;;;;;;;;;25.79;41.84;94908.38;5055242;28;7321;-62
2023/01/01 09:01:59;;;;;;;;;;;;;;;25.81;41.42;94905.84;5067116;28;9347;-62
2023/01/01 09:04:26;;;;;;;;;;;;;;;25.81;41.81;94897.59;5055321;28;8061;-63
2023/01/01 09:07:03;;;;;;;;;;;;;;;25.83;41.82;94897.84;5043280;28;9580;-63
2023/01/01 09:09:29;;;;;;;;;;;;;;;25.82;42.28;94899.06;5070965;28;10164;-63
2023/01/01 09:12:04;;;;;;;;;;;;;;;25.81;41.84;94900.34;5109426;28;7440;-63
2023/01/01 09:15:05;;;;;;;;;;;;;;;25.81;41.92;94894.84;5099547;28;7054;-64
2023/01/01 09:17:32;;;;;;;;;;;;;;;25.82;42.06;94899.06;5030546;28;6974;-63
2023/01/01 09:20:00;;;;;;;;;;;;;;;25.84;42.31;94901.31;5046363;28;8325;-62
2023/01/01 09:22:31;;;;;;;;;;;;;;;25.84;42.05;94901.31;5031589;28;7625;-62
2023/01/01 09:25:27;;;;;;;;;;;;;;;25.85;41.80;94903.59;5034257;28;7503;-62
2023/01/01 09:28:01;;;;;;;;;;;;;;;25.87;42.14;94901.09;4992157;28;7026;-62
2023/01/01 09:30:28;;;;;;;;;;;;;;;25.86;42.36;94905.09;4987906;28;8538;-62
2023/01/01 09:32:56;;;;;;;;;;;;;;;25.87;42.26;94906.59;4990826;28;9611;-62
2023/01/01 09:35:45;;;;;;;;;;;;;;;25.90;42.27;94904.84;4991335;28;9395;-63
2023/01/01 09:38:29;;;;;;;;;;;;;;;25.93;42.07;94904.59;4991282;28;9027;-62
2023/01/01 09:41:31;;;;;;;;;;;;;;;25.93;42.54;94915.63;4991265;28;7491;-62
2023/01/01 09:44:15;;;;;;;;;;;;;;;25.93;42.26;94909.34;4940685;28;7232;-63
2023/01/01 09:46:41;;;;;;;;;;;;;;;25.92;42.54;94916.88;4952297;28;10510;-62
2023/01/01 09:49:45;;;;;;;;;;;;;;;25.93;42.19;94923.91;4951829;28;7246;-62
2023/01/01 09:52:15;;;;;;;;;;;;;;;25.94;42.49;94914.38;4881194;29;7252;-62
2023/01/01 09:54:51;;;;;;;;;;;;;;;25.95;41.84;94924.16;4917725;29;8947;-62
2023/01/01 09:57:17;;;;;;;;;;;;;;;25.95;42.84;94915.13;4931838;29;9102;-63
2023/01/01 10:00:03;;;;;;;;;;;;;;;25.94;42.92;94919.91;4923500;29;7228;-60
2023/01/01 10:03:19;;;;;;;;;;;;;;;25.94;42.54;94913.63;4932566;29;9335;-62
2023/01/01 10:06:26;;;;;;;;;;;;;;;25.94;42.89;94924.66;4855566;29;8721;-63
2023/01/01 10:09:34;;;;;;;;;;;;;;;25.95;42.36;94923.38;5074010;28;6656;-60
2023/01/01 10:12:20;;;;;;;;;;;;;;;25.96;41.95;94920.16;5066031;28;9404;-59
2023/01/01 10:15:03;;;;;;;;;;;;;;;25.96;42.39;94920.16;5058250;28;7352;-60
2023/01/01 10:17:37;;;;;;;;;;;;;;;25.97;42.44;94921.63;5060575;28;9223;-60
2023/01/01 10:20:22;;;;;;;;;;;;;;;25.99;41.89;94916.38;5062162;28;9394;-60
2023/01/01 10:23:11;;;;;;;;;;;;;;;26.01;41.95;94908.34;5057309;28;6961;-62
2023/01/01 10:26:10;;;;;;;;;;;;;;;26.03;42.22;94907.88;5078086;28;9307;-61
2023/01/01 10:29:00;;;;;;;;;;;;;;;26.04;41.84;94907.34;5005343;28;7274;-61
2023/01/01 10:31:34;;;;;;;;;;;;;;;26.02;42.42;94901.59;5025997;28;7881;-61
2023/01/01 10:34:22;;;;;;;;;;;;;;;26.05;42.49;94897.84;5008233;28;7422;-62
2023/01/01 10:36:59;;;;;;;;;;;;;;;26.06;42.47;94888.31;5020110;28;7353;-61
2023/01/01 10:39:26;;;;;;;;;;;;;;;26.06;42.31;94882.03;5018195;28;6981;-62
2023/01/01 10:42:11;;;;;;;;;;;;;;;26.04;42.53;94885.31;5023934;28;9056;-61
2023/01/01 10:44:52;;;;;;;;;;;;;;;26.06;42.06;94882.03;5012129;28;7137;-62
2023/01/01 10:47:32;;;;;;;;;;;;;;;26.07;41.83;94875.28;4999541;28;7796;-62
2023/01/01 10:50:06;;;;;;;;;;;;;;;26.06;42.42;94871.78;5020000;28;6868;-62
2023/01/01 10:52:58;;;;;;;;;;;;;;;26.06;42.02;94863.50;5020121;28;8580;-62
2023/01/01 10:55:27;;;;;;;;;;;;;;;26.08;42.01;94869.28;5021857;28;7669;-62
2023/01/01 10:57:55;;;;;;;;;;;;;;;26.09;42.50;94870.81;5021098;28;8827;-62
2023/01/01 11:00:30;;;;;;;;;;;;;;;26.11;41.93;94851.00;5007325;28;6956;-61
2023/01/01 11:03:27;;;;;;;;;;;;;;;26.11;42.21;94851.00;5014431;28;9508;-62
2023/01/01 11:06:01;;;;;;;;;;;;;;;26.11;41.66;94851.00;5046138;28;7105;-60
2023/01/01 11:08:32;;;;;;;;;;;;;;;26.12;42.37;94844.25;5051299;28;7106;-61
2023/01/01 11:11:01;;;;;;;;;;;;;;;26.15;42.39;94848.72;5059810;28;9012;-61
2023/01/01 11:14:03;;;;;;;;;;;;;;;26.14;42.19;94847.25;5056537;28;7032;-61
2023/01/01 11:16:45;;;;;;;;;;;;;;;26.13;42.36;94838.22;4985210;28;7030;-62
2023/01/01 11:19:47;;;;;;;;;;;;;;;26.15;41.43;94835.72;4962852;28;7268;-61
2023/01/01 11:22:47;;;;;;;;;;;;;;;26.16;41.99;94830.94;4896691;29;9371;-61
2023/01/01 11:25:26;;;;;;;;;;;;;;;26.16;42.18;94823.41;4911257;29;7283;-62
2023/01/01 11:28:14;;;;;;;;;;;;;;;26.19;41.88;94829.19;4912259;29;9609;-61
2023/01/01 11:31:19;;;;;;;;;;;;;;;26.20;41.57;94820.41;4862135;29;7313;-62
2023/01/01 11:33:52;;;;;;;;;;;;;;;26.21;41.91;94824.66;4837220;29;6966;-62
2023/01/01 11:36:34;;;;;;;;;;;;;;;26.23;42.06;94813.16;4838058;29;9138;-61
2023/01/01 11:39:27;;;;;;;;;;;;;;;26.23;42.06;94804.88;4829063;29;9511;-61
2023/01/01 11:41:56;;;;;;;;;;;;;;;26.25;42.12;94807.88;4839364;29;7428;-61
2023/01/01 11:45:16;;;;;;;;;;;;;;;26.25;41.62;94802.34;4823743;29;9505;-62
2023/01/01 11:47:44;;;;;;;;;;;;;;;26.24;41.41;94798.84;4770771;29;7720;-62
2023/01/01 11:50:28;;;;;;;;;;;;;;;26.24;41.92;94803.59;4779578;29;8559;-61
2023/01/01 11:53:15;;;;;;;;;;;;;;;26.23;41.63;94791.81;4806515;29;7855;-61
2023/01/01 11:56:15;;;;;;;;;;;;;;;26.24;42.01;94792.56;4836054;29;7244;-61
2023/01/01 11:59:11;;;;;;;;;;;;;;;26.22;41.97;94795.84;4850055;29;9436;-60
2023/01/01 12:01:48;;;;;;;;;;;;;;;26.22;41.84;94786.81;4840797;29;7885;-61
2023/01/01 12:04:30;;;;;;;;;;;;;;;26.25;42.34;94778.28;4873410;29;8726;-61
2023/01/01 12:07:06;;;;;;;;;;;;;;;26.27;41.99;94781.28;4902130;28;7032;-61
2023/01/01 12:09:46;;;;;;;;;;;;;;;26.27;42.44;94780.53;4960562;28;9268;-61
2023/01/01 12:12:25;;;;;;;;;;;;;;;26.30;41.96;94780.28;4980820;28;7327;-61
2023/01/01 12:15:02;;;;;;;;;;;;;;;26.31;42.00;94776.25;4983572;28;9388;-62
2023/01/01 12:17:43;;;;;;;;;;;;;;;26.32;41.84;94777.75;4983937;28;9134;-60
2023/01/01 12:20:20;;;;;;;;;;;;;;;26.32;42.15;94769.47;4958230;28;9333;-61
2023/01/01 12:22:47;;;;;;;;;;;;;;;26.36;41.98;94767.19;4976735;28;7145;-61
2023/01/01 12:25:20;;;;;;;;;;;;;;;26.37;42.08;94765.97;5030421;28;7291;-61
2023/01/01 12:27:59;;;;;;;;;;;;;;;26.39;42.21;94766.19;5031570;28;8143;-61
2023/01/01 12:30:40;;;;;;;;;;;;;;;26.42;42.15;94761.69;5036570;28;8659;-61
2023/01/01 12:33:35;;;;;;;;;;;;;;;26.44;42.47;94761.91;5033760;28;7578;-61
2023/01/01 12:36:21;;;;;;;;;;;;;;;26.45;42.14;94763.41;5044177;28;7430;-60
2023/01/01 12:39:05;;;;;;;;;;;;;;;26.45;42.25;94760.66;5051959;28;10072;-61
2023/01/01 12:41:55;;;;;;;;;;;;;;;26.44;42.25;94762.69;5029782;28;7936;-62
2023/01/01 12:44:32;;;;;;;;;;;;;;;26.45;42.70;94760.66;5032520;28;8866;-61
2023/01/01 12:47:23;;;;;;;;;;;;;;;26.47;42.05;94750.63;5037074;28;9257;-61
2023/01/01 12:50:12;;;;;;;;;;;;;;;26.50;42.33;94743.34;5044146;28;7829;-62
2023/01/01 12:52:56;;;;;;;;;;;;;;;26.53;42.14;94747.84;5039455;28;7340;-61
2023/01/01 12:55:52;;;;;;;;;;;;;;;26.52;42.05;94738.06;5041012;28;7127;-61
2023/01/01 12:58:38;;;;;;;;;;;;;;;26.54;42.15;94743.81;5050710;28;6864;-61
2023/01/01 13:01:23;;;;;;;;;;;;;;;26.56;41.89;94730.25;5035522;28;7118;-61
2023/01/01 13:03:57;;;;;;;;;;;;;;;26.58;41.82;94727.75;5040014;28;7590;-61
2023/01/01 13:06:48;;;;;;;;;;;;;;;26.59;42.08;94729.25;5047005;28;7123;-61
2023/01/01 13:09:25;;;;;;;;;;;;;;;26.59;42.04;94723.72;4999433;28;7030;-61
2023/01/01 13:12:06;;;;;;;;;;;;;;;26.59;42.07;94720.97;5015930;28;9630;-59
2023/01/01 13:14:45;;;;;;;;;;;;;;;26.61;41.66;94710.19;5003919;28;7100;-61
2023/01/01 13:17:36;;;;;;;;;;;;;;;26.62;41.97;94706.91;5000719;28;7350;-61
2023/01/01 13:20:04;;;;;;;;;;;;;;;26.63;41.86;94707.66;5021281;28;7008;-61
2023/01/01 13:22:32;;;;;;;;;;;;;;;26.63;41.63;94711.19;5001109;28;9412;-62
2023/01/01 13:25:10;;;;;;;;;;;;;;;26.65;42.19;94710.66;5020145;28;9060;-61
2023/01/01 13:30:35;;;;;;;;;;;;;;;26.67;41.89;94702.63;5022570;28;9018;-61
2023/01/01 13:33:31;;;;;;;;;;;;;;;26.68;41.31;94701.38;5021478;28;7681;-59
2023/01/01 13:36:11;;;;;;;;;;;;;;;26.70;41.84;94707.13;5024845;28;7018;-61
2023/01/01 13:39:02;;;;;;;;;;;;;;;26.70;41.13;94707.13;4993854;28;7380;-61
2023/01/01 13:41:47;;;;;;;;;;;;;;;26.71;41.73;94689.28;5024199;28;10818;-60
2023/01/01 13:44:22;;;;;;;;;;;;;;;26.72;41.64;94693.56;5010062;28;7990;-61
2023/01/01 13:47:15;;;;;;;;;;;;;;;26.74;41.43;94693.84;5029026;28;9133;-61
2023/01/01 13:50:26;;;;;;;;;;;;;;;26.75;41.34;94700.88;5038367;28;7116;-62
2023/01/01 13:53:08;;;;;;;;;;;;;;;26.76;41.67;94699.59;5010459;28;7116;-60
2023/01/01 13:55:55;;;;;;;;;;;;;;;26.77;41.18;94701.09;5003013;28;7084;-61
2023/01/01 13:58:52;;;;;;;;;;;;;;;26.78;40.93;94691.53;4999374;28;8812;-62
2023/01/01 14:01:56;;;;;;;;;;;;;;;26.78;41.12;94691.53;5015210;28;7301;-62
2023/01/01 14:04:44;;;;;;;;;;;;;;;26.83;41.19;94688.75;5017569;28;7034;-60
2023/01/01 14:07:39;;;;;;;;;;;;;;;26.85;41.64;94691.00;5000696;28;7968;-61
2023/01/01 14:10:16;;;;;;;;;;;;;;;26.88;40.77;94690.00;4966921;28;9135;-61